Time;durP1;ratioP1;P1;durP2;ratioP2;P2;SDS_P1;SDS_P2;PMS_P1;PMS_P2;Temp;Humidity;BMP_temperature;BMP_pressure;BME280_temperature;BME280_humidity;BME280_pressure;Samples;Min_cycle;Max_cycle;Signal;HPM_P1;HPM_P2
2023/10/01 00:00:07;;;;;;;13.90;2.70;;;;;;;12.55;96.71;100267.80;109495;1253;60402;-64
2023/10/01 00:03:15;;;;;;;11.50;2.60;;;;;;;12.51;96.79;100265.42;109511;1252;74519;-63
2023/10/01 00:06:03;;;;;;;9.90;1.60;;;;;;;12.47;96.90;100265.61;109526;1254;69132;-64
2023/10/01 00:08:53;;;;;;;10.50;1.90;;;;;;;12.48;97.06;100278.58;109500;1254;71018;-66
2023/10/01 00:11:41;;;;;;;12.70;2.30;;;;;;;12.46;96.90;100281.70;109447;1254;60486;-63
2023/10/01 00:14:29;;;;;;;11.20;2.20;;;;;;;12.45;96.69;100282.85;109509;1253;60144;-63
2023/10/01 00:17:16;;;;;;;10.60;2.00;;;;;;;12.46;97.05;100279.06;109515;1255;71873;-64
2023/10/01 00:20:12;;;;;;;11.70;2.10;;;;;;;12.45;96.70;100269.70;109540;1253;69038;-62
2023/10/01 00:23:02;;;;;;;9.60;1.80;;;;;;;12.45;96.61;100270.59;109510;1253;72626;-62
2023/10/01 00:25:50;;;;;;;11.60;1.90;;;;;;;12.43;96.92;100268.95;109340;1253;59574;-63
2023/10/01 00:28:40;;;;;;;10.90;2.20;;;;;;;12.43;96.67;100273.73;109564;1253;59980;-63
2023/10/01 00:31:32;;;;;;;9.60;2.20;;;;;;;12.41;96.71;100274.61;109540;1253;73361;-63
2023/10/01 00:34:20;;;;;;;12.90;2.20;;;;;;;12.39;96.68;100274.59;109542;1253;66408;-64
2023/10/01 00:37:08;;;;;;;11.40;2.30;;;;;;;12.38;96.75;100272.39;109480;1254;73835;-63
2023/10/01 00:40:05;;;;;;;12.30;2.20;;;;;;;12.38;96.89;100265.09;109491;1254;60275;-65
2023/10/01 00:42:54;;;;;;;12.50;2.60;;;;;;;12.37;96.77;100269.77;109478;1253;61355;-63
2023/10/01 00:45:42;;;;;;;13.10;2.20;;;;;;;12.36;96.77;100273.06;109358;1256;70911;-64
2023/10/01 00:48:30;;;;;;;13.40;1.70;;;;;;;12.36;96.69;100277.52;109481;1253;66591;-66
2023/10/01 00:51:20;;;;;;;12.40;2.20;;;;;;;12.34;97.32;100275.35;109444;1253;73532;-64
2023/10/01 00:54:10;;;;;;;9.70;1.90;;;;;;;12.33;97.41;100272.30;109544;1254;57537;-67
2023/10/01 00:56:57;;;;;;;10.10;2.00;;;;;;;12.32;97.25;100272.41;109477;1253;60082;-66
2023/10/01 00:59:46;;;;;;;14.40;2.00;;;;;;;12.30;97.64;100269.46;109538;1254;71668;-62
2023/10/01 01:02:37;;;;;;;9.10;1.90;;;;;;;12.29;97.77;100271.34;109501;1253;68800;-64
2023/10/01 01:05:34;;;;;;;13.60;2.10;;;;;;;12.30;98.10;100266.30;109376;1253;204725;-62
2023/10/01 01:08:29;;;;;;;11.30;1.90;;;;;;;12.33;97.95;100262.86;109480;1254;59300;-63
2023/10/01 01:11:16;;;;;;;10.30;2.30;;;;;;;12.35;97.97;100255.74;109363;1254;61033;-61
2023/10/01 01:14:04;;;;;;;11.10;2.10;;;;;;;12.37;98.21;100249.67;109529;1254;73904;-65
2023/10/01 01:16:52;;;;;;;10.20;2.50;;;;;;;12.40;98.01;100245.73;109539;1253;67750;-63
2023/10/01 01:19:42;;;;;;;11.00;1.80;;;;;;;12.39;98.40;100246.02;109462;1252;72451;-62
2023/10/01 01:22:33;;;;;;;10.50;2.00;;;;;;;12.39;98.38;100237.94;109518;1254;60595;-62
2023/10/01 01:25:21;;;;;;;12.40;2.30;;;;;;;12.40;98.51;100239.84;109567;1252;61407;-63
2023/10/01 01:28:12;;;;;;;8.10;2.00;;;;;;;12.42;98.59;100240.42;109565;1254;72087;-61
2023/10/01 01:31:03;;;;;;;9.30;2.00;;;;;;;12.44;98.50;100246.42;109525;1252;68793;-64
2023/10/01 01:33:55;;;;;;;14.50;2.10;;;;;;;12.44;98.24;100235.99;109504;1254;71198;-63
2023/10/01 01:36:43;;;;;;;9.60;1.70;;;;;;;12.51;98.05;100240.20;109518;1253;59230;-62
2023/10/01 01:39:42;;;;;;;12.00;2.50;;;;;;;12.48;98.17;100225.89;109498;1253;60688;-61
2023/10/01 01:42:30;;;;;;;9.00;1.80;;;;;;;12.57;97.97;100234.38;109393;1253;74220;-63
2023/10/01 01:45:25;;;;;;;12.70;2.10;;;;;;;12.60;97.72;100237.68;109523;1252;67776;-65
2023/10/01 01:48:30;;;;;;;10.60;1.80;;;;;;;12.62;97.47;100237.02;109518;1253;71405;-63
2023/10/01 01:51:20;;;;;;;11.70;1.90;;;;;;;12.63;97.42;100235.80;108764;1253;1002486;-62
2023/10/01 01:54:09;;;;;;;11.70;2.20;;;;;;;12.64;97.11;100236.09;109532;1253;58722;-62
2023/10/01 01:56:58;;;;;;;12.80;2.60;;;;;;;12.64;97.23;100235.52;109456;1254;72808;-63
2023/10/01 01:59:45;;;;;;;9.80;1.80;;;;;;;12.65;96.97;100236.88;109407;1254;68297;-64
2023/10/01 02:02:33;;;;;;;12.40;1.90;;;;;;;12.65;97.08;100239.91;109525;1252;72777;-63
2023/10/01 02:05:27;;;;;;;12.20;2.20;;;;;;;12.65;97.04;100238.67;109455;1253;60563;-63
2023/10/01 02:08:24;;;;;;;10.00;1.80;;;;;;;12.65;97.04;100245.59;109404;1253;59717;-62
2023/10/01 02:11:13;;;;;;;9.00;1.80;;;;;;;12.64;97.16;100246.98;109531;1253;72663;-62
2023/10/01 02:14:04;;;;;;;10.00;1.40;;;;;;;12.60;97.47;100244.98;109531;1253;66671;-63
2023/10/01 02:16:56;;;;;;;10.50;2.20;;;;;;;12.55;97.70;100243.23;109518;1253;72417;-65
2023/10/01 02:19:47;;;;;;;11.90;1.70;;;;;;;12.48;98.07;100234.74;109532;1253;58800;-63
2023/10/01 02:22:34;;;;;;;10.30;2.10;;;;;;;12.45;99.05;100245.11;109479;1254;60021;-64
2023/10/01 02:25:36;;;;;;;11.40;2.10;;;;;;;12.42;98.90;100241.66;109516;1253;73069;-62
2023/10/01 02:28:26;;;;;;;12.10;1.90;;;;;;;12.38;99.49;100238.20;109454;1253;67805;-64
2023/10/01 02:31:13;;;;;;;12.50;2.10;;;;;;;12.37;99.44;100236.74;109519;1252;73493;-64
2023/10/01 02:34:02;;;;;;;10.70;2.90;;;;;;;12.34;99.71;100234.83;109488;1253;59760;-62
2023/10/01 02:36:50;;;;;;;11.60;2.10;;;;;;;12.33;99.82;100236.20;109520;1253;59982;-63
2023/10/01 02:39:41;;;;;;;10.50;1.80;;;;;;;12.25;99.93;100230.04;109495;1253;73002;-61
2023/10/01 02:42:31;;;;;;;10.80;2.00;;;;;;;12.28;100.00;100233.17;109353;1254;67018;-62
2023/10/01 02:45:32;;;;;;;9.60;2.00;;;;;;;12.27;100.00;100231.13;109521;1253;72389;-63
2023/10/01 02:48:20;;;;;;;9.90;1.60;;;;;;;12.25;100.00;100225.93;109556;1252;57315;-63
2023/10/01 02:51:15;;;;;;;11.30;2.40;;;;;;;12.25;100.00;100228.59;109502;1253;59774;-61
2023/10/01 02:57:12;;;;;;;12.00;2.30;;;;;;;12.25;100.00;100225.75;109389;1253;67738;-63
2023/10/01 03:02:59;;;;;;;9.30;2.00;;;;;;;12.25;100.00;100237.34;109468;1254;58490;-65
2023/10/01 03:05:47;;;;;;;11.10;2.00;;;;;;;12.26;100.00;100235.84;109498;1253;60273;-63
2023/10/01 03:11:41;;;;;;;16.90;2.30;;;;;;;12.26;100.00;100232.44;109535;1253;66367;-67
2023/10/01 03:14:29;;;;;;;8.60;2.00;;;;;;;12.25;100.00;100228.05;109529;1252;71350;-64
2023/10/01 03:17:18;;;;;;;10.70;2.00;;;;;;;12.24;100.00;100228.34;109564;1253;60506;-64
2023/10/01 03:20:58;;;;;;;9.90;2.20;;;;;;;12.22;100.00;100225.13;109504;1253;61032;-64
2023/10/01 03:23:28;;;;;;;12.40;2.10;;;;;;;12.20;100.00;100224.73;109547;1253;71446;-64
2023/10/01 03:26:17;;;;;;;14.60;2.20;;;;;;;12.20;100.00;100214.30;109541;1252;67645;-64
2023/10/01 03:29:21;;;;;;;12.10;2.20;;;;;;;12.19;100.00;100211.30;109528;1252;71041;-64
2023/10/01 03:32:27;;;;;;;13.30;2.20;;;;;;;12.18;100.00;100211.25;109557;1252;59515;-64
2023/10/01 03:35:15;;;;;;;13.10;2.10;;;;;;;12.15;100.00;100207.90;109494;1253;59978;-63
2023/10/01 03:38:14;;;;;;;9.60;2.20;;;;;;;12.14;100.00;100207.65;109567;1252;71948;-63
2023/10/01 03:41:07;;;;;;;12.30;2.60;;;;;;;12.12;100.00;100208.05;109579;1252;67996;-64
2023/10/01 03:47:09;;;;;;;10.30;2.30;;;;;;;12.08;100.00;100207.27;109421;1252;59203;-62
2023/10/01 03:49:57;;;;;;;10.60;2.70;;;;;;;12.06;100.00;100211.11;109477;1253;60148;-63
2023/10/01 03:52:51;;;;;;;12.80;2.50;;;;;;;12.05;100.00;100213.69;109535;1252;73747;-63
2023/10/01 03:55:42;;;;;;;11.80;2.30;;;;;;;12.07;100.00;100214.81;109527;1253;68871;-63
2023/10/01 03:58:36;;;;;;;10.80;2.20;;;;;;;12.07;100.00;100211.05;109527;1252;71802;-62
2023/10/01 04:01:33;;;;;;;10.10;2.80;;;;;;;12.07;100.00;100209.98;109495;1252;59265;-63
2023/10/01 04:04:21;;;;;;;9.40;2.00;;;;;;;12.07;100.00;100204.63;109468;1252;57943;-63
2023/10/01 04:07:11;;;;;;;11.70;2.50;;;;;;;12.08;100.00;100204.38;109487;1252;72121;-61
2023/10/01 04:10:01;;;;;;;10.40;2.10;;;;;;;12.11;100.00;100209.66;109518;1252;67900;-62
2023/10/01 04:12:54;;;;;;;11.60;1.90;;;;;;;12.14;100.00;100209.83;109502;1253;72522;-64
2023/10/01 04:15:49;;;;;;;10.90;2.30;;;;;;;12.15;100.00;100207.20;109506;1252;57951;-64
2023/10/01 04:18:41;;;;;;;13.80;2.40;;;;;;;12.18;100.00;100202.51;109446;1253;60387;-62
2023/10/01 04:21:34;;;;;;;11.10;2.20;;;;;;;12.21;100.00;100200.33;109456;1252;72105;-61
2023/10/01 04:24:22;;;;;;;9.90;1.90;;;;;;;12.22;100.00;100201.25;109454;1253;66071;-62
2023/10/01 04:27:23;;;;;;;11.50;1.90;;;;;;;12.24;100.00;100205.91;109405;1252;72910;-61
2023/10/01 04:30:11;;;;;;;9.10;1.90;;;;;;;12.27;100.00;100205.34;109437;1252;58456;-61
2023/10/01 04:32:59;;;;;;;13.00;2.10;;;;;;;12.30;100.00;100202.48;109391;1252;61042;-65
2023/10/01 04:35:56;;;;;;;10.00;2.00;;;;;;;12.30;100.00;100200.81;109486;1253;72103;-64
2023/10/01 04:38:45;;;;;;;11.50;2.40;;;;;;;12.29;100.00;100201.44;109495;1253;66265;-62
2023/10/01 04:41:34;;;;;;;10.10;2.20;;;;;;;12.29;100.00;100201.60;109454;1252;72378;-63
2023/10/01 04:44:22;;;;;;;10.50;1.90;;;;;;;12.29;100.00;100199.46;109487;1253;59653;-61
2023/10/01 04:47:31;;;;;;;12.50;2.40;;;;;;;12.28;100.00;100197.06;109545;1252;59998;-65
2023/10/01 04:50:20;;;;;;;12.90;2.30;;;;;;;12.27;100.00;100195.39;109463;1253;71897;-64
2023/10/01 04:53:07;;;;;;;9.90;2.20;;;;;;;12.25;100.00;100193.02;109488;1252;67868;-67
2023/10/01 04:56:00;;;;;;;9.70;1.80;;;;;;;12.24;100.00;100194.38;109499;1252;70687;-64
2023/10/01 04:58:51;;;;;;;12.80;3.00;;;;;;;12.24;100.00;100201.51;109396;1253;58285;-69
2023/10/01 05:01:39;;;;;;;12.40;2.20;;;;;;;12.24;100.00;100204.31;109411;1253;59001;-65
2023/10/01 05:04:30;;;;;;;11.70;2.20;;;;;;;12.24;100.00;100205.55;109479;1252;71809;-60
2023/10/01 05:07:18;;;;;;;8.40;1.80;;;;;;;12.25;100.00;100209.77;109498;1252;67654;-63
2023/10/01 05:10:08;;;;;;;12.50;1.80;;;;;;;12.26;100.00;100213.73;109482;1252;73427;-62
2023/10/01 05:12:58;;;;;;;15.10;2.30;;;;;;;12.27;100.00;100213.36;109446;1252;60218;-66
2023/10/01 05:15:49;;;;;;;10.90;2.40;;;;;;;12.27;100.00;100214.08;109483;1252;59962;-65
2023/10/01 05:18:37;;;;;;;9.80;2.20;;;;;;;12.30;100.00;100219.52;109418;1253;73864;-63
2023/10/01 05:21:27;;;;;;;11.70;2.10;;;;;;;12.33;100.00;100221.55;109564;1252;67614;-60
2023/10/01 05:24:34;;;;;;;11.10;2.00;;;;;;;12.37;100.00;100222.11;109429;1252;71258;-63
2023/10/01 05:27:24;;;;;;;11.30;2.50;;;;;;;12.40;100.00;100223.10;109390;1252;59171;-64
2023/10/01 05:33:19;;;;;;;11.90;2.10;;;;;;;12.49;100.00;100229.28;109480;1252;71005;-68
2023/10/01 05:36:08;;;;;;;8.90;2.10;;;;;;;12.54;100.00;100233.66;109407;1253;67643;-71
2023/10/01 05:38:56;;;;;;;12.50;1.90;;;;;;;12.59;100.00;100230.64;109399;1252;71445;-68
2023/10/01 05:41:44;;;;;;;10.20;2.10;;;;;;;12.64;100.00;100230.27;109449;1252;59296;-69
2023/10/01 05:44:34;;;;;;;10.50;2.40;;;;;;;12.67;100.00;100230.48;109454;1252;58715;-66
2023/10/01 05:47:22;;;;;;;10.40;2.00;;;;;;;12.70;100.00;100233.07;109499;1252;72297;-67
2023/10/01 05:50:12;;;;;;;12.70;2.50;;;;;;;12.76;100.00;100236.33;109412;1252;67770;-67
2023/10/01 05:53:01;;;;;;;8.20;1.90;;;;;;;12.83;100.00;100233.60;109458;1252;71338;-68
2023/10/01 05:55:49;;;;;;;10.40;2.00;;;;;;;12.90;99.75;100237.84;109405;1252;58189;-70
2023/10/01 05:58:44;;;;;;;12.80;2.40;;;;;;;12.98;99.14;100236.47;109500;1252;59989;-68
2023/10/01 06:01:33;;;;;;;10.90;1.90;;;;;;;13.06;98.80;100232.15;109415;1252;72771;-69
2023/10/01 06:04:21;;;;;;;10.80;1.90;;;;;;;13.14;98.06;100232.43;109491;1252;68792;-66
2023/10/01 06:07:08;;;;;;;11.30;2.10;;;;;;;13.24;97.50;100229.27;109497;1252;72446;-68
2023/10/01 06:09:57;;;;;;;11.50;1.80;;;;;;;13.35;97.04;100234.92;109442;1252;59758;-69
2023/10/01 06:12:51;;;;;;;9.20;1.90;;;;;;;13.46;96.44;100241.42;109473;1252;60996;-71
2023/10/01 06:15:39;;;;;;;10.90;2.10;;;;;;;13.56;95.77;100243.80;109251;1252;72702;-71
2023/10/01 06:18:27;;;;;;;10.10;2.00;;;;;;;13.72;95.57;100241.00;109407;1252;67829;-70
2023/10/01 06:21:16;;;;;;;8.70;1.90;;;;;;;13.85;94.75;100243.21;109515;1252;72631;-68
2023/10/01 06:24:07;;;;;;;10.60;1.90;;;;;;;13.89;94.23;100243.22;109420;1252;59314;-68
2023/10/01 06:26:56;;;;;;;9.50;2.20;;;;;;;14.05;93.80;100244.16;109437;1253;60128;-72
2023/10/01 06:29:49;;;;;;;15.30;2.00;;;;;;;14.19;92.51;100247.85;109448;1252;71774;-70
2023/10/01 06:32:37;;;;;;;13.30;2.50;;;;;;;14.35;91.93;100249.17;109514;1252;66341;-67
2023/10/01 06:35:26;;;;;;;13.10;2.40;;;;;;;14.51;91.23;100248.56;109385;1254;70400;-68
2023/10/01 06:38:14;;;;;;;8.20;1.80;;;;;;;14.57;91.10;100252.11;109322;1253;57296;-72
2023/10/01 06:41:01;;;;;;;10.30;2.00;;;;;;;14.58;90.06;100247.70;109401;1253;60075;-70
2023/10/01 06:43:49;;;;;;;9.10;2.00;;;;;;;14.72;89.57;100256.86;109411;1252;73191;-69
2023/10/01 06:46:37;;;;;;;9.60;2.20;;;;;;;14.95;88.81;100258.54;109432;1252;68635;-71
2023/10/01 06:49:25;;;;;;;13.10;1.90;;;;;;;15.45;87.21;100258.96;109351;1253;72668;-71
2023/10/01 06:52:15;;;;;;;10.20;1.80;;;;;;;16.29;85.23;100265.05;109337;1252;58836;-70
2023/10/01 06:55:04;;;;;;;11.50;2.60;;;;;;;16.41;81.84;100259.55;109330;1252;60501;-74
2023/10/01 06:57:53;;;;;;;9.90;2.30;;;;;;;16.86;80.26;100259.25;109356;1252;71751;-70
2023/10/01 07:00:41;;;;;;;9.00;2.30;;;;;;;17.25;77.65;100256.91;109425;1252;67005;-70
2023/10/01 07:03:30;;;;;;;9.60;2.10;;;;;;;17.76;75.33;100255.95;109418;1253;72496;-72
2023/10/01 07:06:21;;;;;;;9.30;1.70;;;;;;;18.46;73.95;100249.80;109353;1252;57773;-70
2023/10/01 07:12:17;;;;;;;10.90;2.10;;;;;;;19.56;66.22;100257.33;109532;1252;71765;-67
2023/10/01 07:15:06;;;;;;;10.00;1.90;;;;;;;19.90;64.24;100265.25;109379;1252;68798;-69
2023/10/01 07:17:54;;;;;;;10.60;1.90;;;;;;;20.30;62.54;100261.73;109423;1253;73821;-69
2023/10/01 07:20:46;;;;;;;9.70;2.00;;;;;;;20.89;60.42;100267.18;109382;1253;57658;-67
2023/10/01 07:23:35;;;;;;;9.10;1.90;;;;;;;21.36;58.94;100267.15;109448;1252;58742;-70
2023/10/01 07:26:22;;;;;;;8.30;1.70;;;;;;;22.00;57.21;100268.81;109529;1252;73056;-68
2023/10/01 07:29:10;;;;;;;10.20;1.90;;;;;;;22.58;54.58;100263.89;109444;1253;67662;-70
2023/10/01 07:31:58;;;;;;;8.00;1.70;;;;;;;23.04;52.77;100269.16;109442;1252;72641;-69
2023/10/01 07:34:48;;;;;;;8.30;1.60;;;;;;;23.26;50.19;100267.92;109549;1253;58290;-68
2023/10/01 07:37:37;;;;;;;8.60;1.90;;;;;;;23.62;50.59;100273.80;109383;1253;59996;-73
2023/10/01 07:40:25;;;;;;;8.10;1.50;;;;;;;23.55;50.22;100274.55;109376;1253;73028;-72
2023/10/01 07:43:13;;;;;;;8.10;1.50;;;;;;;23.02;50.18;100277.40;109407;1253;67632;-69
2023/10/01 07:46:07;;;;;;;7.90;1.80;;;;;;;22.72;50.70;100280.17;109394;1252;73685;-67
2023/10/01 07:49:00;;;;;;;7.70;1.60;;;;;;;21.81;52.30;100283.85;109439;1252;57439;-68
2023/10/01 07:51:50;;;;;;;7.90;1.80;;;;;;;21.47;53.60;100284.48;109439;1253;58735;-68
2023/10/01 07:54:39;;;;;;;7.70;1.80;;;;;;;21.46;53.97;100285.44;109370;1253;73468;-69
2023/10/01 07:57:27;;;;;;;9.00;1.80;;;;;;;21.59;53.57;100290.74;109441;1253;66726;-67
2023/10/01 08:00:26;;;;;;;7.90;1.50;;;;;;;21.31;53.82;100288.19;109495;1252;71528;-69
2023/10/01 08:06:12;;;;;;;8.50;1.70;;;;;;;19.87;57.09;100299.09;109411;1253;61162;-68
2023/10/01 08:09:05;;;;;;;7.10;1.70;;;;;;;19.34;58.90;100299.56;109527;1252;70716;-71
2023/10/01 08:12:05;;;;;;;9.20;1.80;;;;;;;18.79;60.38;100300.32;109535;1252;66555;-69
2023/10/01 08:21:15;;;;;;;8.70;1.90;;;;;;;17.53;65.24;100318.98;109460;1253;58712;-69
2023/10/01 08:24:09;;;;;;;8.20;1.50;;;;;;;17.39;66.55;100318.77;109520;1253;72724;-68
2023/10/01 08:26:57;;;;;;;8.80;2.00;;;;;;;17.34;67.25;100323.95;109391;1252;67703;-70
2023/10/01 08:33:18;;;;;;;12.00;2.20;;;;;;;17.46;67.72;100318.10;109304;1253;57583;-68
2023/10/01 08:36:12;;;;;;;10.70;2.30;;;;;;;18.83;64.43;100312.52;109476;1253;61014;-68
2023/10/01 08:42:10;;;;;;;10.30;2.20;;;;;;;21.55;54.64;100303.00;109478;1252;66632;-69
2023/10/01 08:45:03;;;;;;;10.20;2.10;;;;;;;22.59;51.27;100303.19;109435;1252;72665;-71
2023/10/01 08:47:51;;;;;;;12.30;2.40;;;;;;;23.48;48.16;100304.76;109371;1252;57986;-70
2023/10/01 08:50:40;;;;;;;9.40;2.20;;;;;;;23.69;47.29;100304.91;109515;1252;58934;-70
2023/10/01 08:53:36;;;;;;;11.30;3.10;;;;;;;24.04;45.93;100300.84;109427;1252;73168;-71
2023/10/01 08:56:56;;;;;;;;;;;;;;;;;;;;;
2023/10/01 08:59:34;;;;;;;8.70;2.20;;;;;;;25.04;43.81;100299.52;109368;1252;71444;-70
2023/10/01 09:02:23;;;;;;;8.80;1.70;;;;;;;25.83;41.85;100300.86;109509;1252;57605;-72
2023/10/01 09:05:23;;;;;;;10.60;1.90;;;;;;;26.28;39.64;100298.64;109560;1252;61315;-69
2023/10/01 09:08:29;;;;;;;8.90;2.30;;;;;;;26.68;38.47;100292.45;109330;1253;72984;-73
2023/10/01 09:11:18;;;;;;;8.80;2.10;;;;;;;27.12;37.48;100286.30;109530;1252;66628;-70
2023/10/01 09:14:17;;;;;;;8.30;1.60;;;;;;;27.31;36.20;100286.20;109287;1252;72423;-68
2023/10/01 09:17:26;;;;;;;7.00;1.80;;;;;;;27.56;36.19;100281.11;109339;1253;57661;-71
2023/10/01 09:20:17;;;;;;;8.90;1.60;;;;;;;27.81;35.75;100279.96;109469;1252;60541;-73
2023/10/01 09:23:06;;;;;;;9.90;2.00;;;;;;;28.27;35.13;100282.88;109476;1252;72935;-70
2023/10/01 09:26:00;;;;;;;7.00;1.60;;;;;;;28.80;34.05;100281.15;109505;1252;69337;-69
2023/10/01 09:28:47;;;;;;;8.30;2.10;;;;;;;29.18;33.49;100280.97;109476;1253;73877;-70
2023/10/01 09:31:56;;;;;;;6.80;1.40;;;;;;;29.37;32.23;100287.10;109485;1253;57283;-70
2023/10/01 09:34:53;;;;;;;7.70;1.60;;;;;;;28.90;32.95;100290.91;109552;1253;60351;-69
2023/10/01 09:37:52;;;;;;;7.30;1.70;;;;;;;28.67;31.99;100297.10;109433;1253;73979;-68
2023/10/01 09:40:42;;;;;;;6.70;1.30;;;;;;;28.37;33.04;100305.16;109508;1252;66355;-73
2023/10/01 09:43:32;;;;;;;6.70;1.40;;;;;;;28.76;32.66;100308.44;109398;1252;70596;-72
2023/10/01 09:46:23;;;;;;;7.50;1.50;;;;;;;29.15;31.80;100303.43;109396;1253;58071;-69
2023/10/01 09:49:21;;;;;;;7.30;1.50;;;;;;;29.52;31.05;100301.30;109558;1252;58723;-69
2023/10/01 09:52:12;;;;;;;8.80;1.50;;;;;;;29.57;30.29;100302.29;109355;1252;71479;-70
2023/10/01 09:55:10;;;;;;;9.00;1.40;;;;;;;29.54;30.16;100298.99;109400;1253;66295;-71
2023/10/01 09:58:10;;;;;;;7.40;1.60;;;;;;;29.47;29.48;100298.23;109354;1252;70361;-71
2023/10/01 10:01:01;;;;;;;7.60;1.60;;;;;;;29.46;29.23;100298.31;109507;1252;58754;-69
2023/10/01 10:03:54;;;;;;;7.90;1.80;;;;;;;29.48;29.40;100294.63;109445;1252;58702;-69
2023/10/01 10:06:42;;;;;;;8.40;1.70;;;;;;;29.25;29.06;100288.57;109440;1252;73169;-71
2023/10/01 10:09:31;;;;;;;7.20;1.60;;;;;;;29.21;29.11;100287.06;109448;1253;66853;-70
2023/10/01 10:12:33;;;;;;;10.50;1.80;;;;;;;29.26;29.26;100289.02;109434;1253;72801;-69
2023/10/01 10:15:57;;;;;;;9.50;1.90;;;;;;;29.50;28.68;100282.73;109452;1252;58004;-71
2023/10/01 10:19:15;;;;;;;8.10;1.70;;;;;;;29.15;28.54;100284.98;109516;1253;61103;-70
2023/10/01 10:22:16;;;;;;;8.70;1.60;;;;;;;29.07;28.81;100283.00;109359;1253;73168;-72
2023/10/01 10:25:25;;;;;;;7.70;1.50;;;;;;;28.80;28.90;100286.40;109500;1253;66394;-69
2023/10/01 10:28:53;;;;;;;7.80;1.50;;;;;;;28.88;28.97;100288.62;109310;1252;72841;-70
2023/10/01 10:31:44;;;;;;;6.90;1.60;;;;;;;28.45;29.21;100292.25;109471;1253;57698;-69
2023/10/01 10:34:36;;;;;;;6.90;1.60;;;;;;;28.61;29.33;100287.96;109484;1252;61209;-70
2023/10/01 10:37:36;;;;;;;7.90;1.50;;;;;;;28.70;29.50;100291.50;109427;1252;71883;-70
2023/10/01 10:40:26;;;;;;;8.40;1.80;;;;;;;28.69;29.28;100289.40;109496;1253;68206;-73
2023/10/01 10:43:16;;;;;;;7.80;1.60;;;;;;;28.42;29.67;100293.15;109152;1256;73058;-73
2023/10/01 10:46:08;;;;;;;8.30;1.70;;;;;;;28.42;30.31;100293.44;109132;1256;57637;-68
2023/10/01 10:48:59;;;;;;;10.10;1.90;;;;;;;28.34;30.77;100295.40;109229;1255;61209;-69
2023/10/01 10:51:49;;;;;;;7.40;1.80;;;;;;;27.97;30.57;100287.87;109171;1256;73314;-71
2023/10/01 10:54:37;;;;;;;8.50;1.70;;;;;;;27.55;31.15;100293.73;109194;1255;67711;-68
2023/10/01 10:57:28;;;;;;;7.50;1.60;;;;;;;27.42;31.62;100296.61;109118;1256;73153;-70
2023/10/01 11:00:24;;;;;;;6.80;1.50;;;;;;;26.82;32.80;100309.41;109059;1256;57703;-69
2023/10/01 11:03:11;;;;;;;7.60;1.70;;;;;;;26.75;32.75;100306.23;109047;1256;61008;-67
2023/10/01 11:06:40;;;;;;;8.20;1.70;;;;;;;26.11;33.16;100307.88;109124;1255;71910;-69
2023/10/01 11:09:30;;;;;;;7.40;1.70;;;;;;;26.10;33.59;100310.05;109135;1256;66784;-70
2023/10/01 11:12:21;;;;;;;6.60;1.40;;;;;;;26.08;33.40;100309.28;109177;1256;72680;-70
2023/10/01 11:15:23;;;;;;;7.40;1.40;;;;;;;25.89;33.91;100307.79;109420;1253;57309;-69
2023/10/01 11:18:11;;;;;;;8.80;1.70;;;;;;;25.59;34.18;100304.52;109368;1252;59136;-68
2023/10/01 11:21:02;;;;;;;8.20;1.50;;;;;;;24.60;35.54;100305.65;109494;1253;71945;-69
2023/10/01 11:23:55;;;;;;;7.00;1.70;;;;;;;23.47;37.54;100306.38;109246;1253;67642;-70
2023/10/01 11:27:25;;;;;;;8.70;1.60;;;;;;;22.98;38.34;100300.92;109357;1253;72554;-72
2023/10/01 11:30:19;;;;;;;7.30;1.70;;;;;;;22.52;39.66;100313.40;109385;1253;58398;-69
2023/10/01 11:33:13;;;;;;;8.50;1.80;;;;;;;22.86;39.98;100304.11;109435;1252;61740;-69
2023/10/01 11:36:09;;;;;;;7.00;1.80;;;;;;;23.25;38.62;100299.96;109046;1258;72497;-71
2023/10/01 11:38:57;;;;;;;7.40;1.50;;;;;;;23.54;37.82;100297.73;109125;1256;68244;-69
2023/10/01 11:41:45;;;;;;;6.50;1.30;;;;;;;23.45;37.88;100294.84;109047;1256;71486;-69
2023/10/01 11:44:43;;;;;;;6.70;1.60;;;;;;;22.96;38.75;100298.84;108989;1257;57795;-69
2023/10/01 11:48:04;;;;;;;7.60;1.50;;;;;;;22.44;39.13;100304.45;109022;1257;60406;-68
2023/10/01 11:50:53;;;;;;;7.60;1.50;;;;;;;22.03;40.18;100303.36;109058;1258;72906;-75
2023/10/01 11:54:12;;;;;;;7.70;1.60;;;;;;;21.74;40.67;100300.34;108851;1257;67687;-71
2023/10/01 11:57:04;;;;;;;7.60;1.30;;;;;;;21.70;41.18;100298.11;108998;1258;72670;-70
2023/10/01 11:59:58;;;;;;;7.60;1.50;;;;;;;21.60;41.09;100297.73;109027;1258;58050;-68
2023/10/01 12:02:58;;;;;;;7.30;1.70;;;;;;;21.70;40.92;100298.84;109051;1258;60570;-72
2023/10/01 12:05:48;;;;;;;7.70;1.80;;;;;;;21.99;40.65;100300.63;108959;1257;74220;-69
2023/10/01 12:08:35;;;;;;;8.10;2.00;;;;;;;21.92;40.47;100294.71;109099;1256;66483;-69
2023/10/01 12:11:26;;;;;;;7.90;1.80;;;;;;;22.02;40.31;100295.17;109181;1256;73453;-69
2023/10/01 12:14:18;;;;;;;7.40;1.90;;;;;;;21.76;40.62;100297.05;109165;1256;57688;-66
2023/10/01 12:17:06;;;;;;;8.50;2.00;;;;;;;21.58;40.74;100302.27;109196;1256;59493;-67
2023/10/01 12:20:03;;;;;;;9.10;1.60;;;;;;;21.13;41.33;100304.59;109114;1255;74075;-68
2023/10/01 12:23:11;;;;;;;8.60;1.80;;;;;;;20.85;42.06;100300.11;109089;1256;66576;-70
2023/10/01 12:26:31;;;;;;;8.70;1.80;;;;;;;20.71;42.98;100302.23;109088;1255;71212;-69
2023/10/01 12:29:13;;;;;;;6.00;1.50;;;;;;;20.66;43.36;100298.71;109171;1256;58651;-72
2023/10/01 12:32:03;;;;;;;7.20;1.60;;;;;;;20.55;43.76;100298.32;109036;1256;58781;-71
2023/10/01 12:34:51;;;;;;;6.70;1.70;;;;;;;20.35;44.43;100302.82;109119;1256;73068;-68
2023/10/01 12:37:39;;;;;;;9.60;1.60;;;;;;;20.09;44.90;100303.81;109059;1256;66604;-67
2023/10/01 12:40:27;;;;;;;8.00;1.40;;;;;;;20.01;45.21;100296.63;109272;1253;73920;-69
2023/10/01 12:46:24;;;;;;;9.70;2.10;;;;;;;19.99;46.09;100292.81;109305;1255;60063;-67
2023/10/01 12:49:15;;;;;;;9.10;2.10;;;;;;;19.87;46.59;100294.55;109125;1254;74298;-66
2023/10/01 12:52:04;;;;;;;9.80;1.80;;;;;;;19.74;47.22;100294.57;109461;1254;68056;-66
2023/10/01 12:55:00;;;;;;;7.10;1.90;;;;;;;19.65;47.58;100297.23;109430;1253;73392;-64
2023/10/01 12:57:48;;;;;;;9.20;1.80;;;;;;;19.49;48.08;100295.84;109301;1253;57587;-63
2023/10/01 13:00:44;;;;;;;9.30;1.80;;;;;;;19.32;48.46;100298.30;109512;1254;61037;-66
2023/10/01 13:03:42;;;;;;;10.80;1.70;;;;;;;19.17;49.07;100297.85;109315;1254;227416;-67
2023/10/01 13:06:33;;;;;;;8.30;1.80;;;;;;;19.07;49.56;100296.79;109277;1254;67644;-65
2023/10/01 13:12:30;;;;;;;7.90;1.80;;;;;;;18.83;50.88;100301.90;109423;1253;58150;-68
2023/10/01 13:15:24;;;;;;;9.20;1.90;;;;;;;18.76;51.23;100299.80;109442;1255;61154;-65
2023/10/01 13:18:22;;;;;;;7.50;1.90;;;;;;;18.70;51.93;100299.66;109420;1254;71758;-66
2023/10/01 13:21:10;;;;;;;6.50;1.60;;;;;;;18.55;52.19;100296.95;109277;1254;67869;-64
2023/10/01 13:24:07;;;;;;;9.00;1.70;;;;;;;18.44;53.00;100297.26;109248;1253;72666;-67
2023/10/01 13:27:10;;;;;;;8.50;1.80;;;;;;;18.26;53.42;100295.73;109298;1254;57288;-65
2023/10/01 13:30:18;;;;;;;8.10;1.70;;;;;;;18.18;53.72;100293.96;109209;1254;60197;-66
2023/10/01 13:33:16;;;;;;;9.30;1.80;;;;;;;18.09;54.03;100294.71;109498;1253;71691;-65
2023/10/01 13:36:12;;;;;;;8.30;2.00;;;;;;;17.90;54.49;100290.02;109413;1254;67938;-65
2023/10/01 13:39:14;;;;;;;7.10;1.70;;;;;;;17.81;54.89;100291.63;109278;1254;71397;-64
2023/10/01 14:10:05;;;;;;;9.30;1.70;;;;;;;16.48;61.40;100284.67;109418;1256;72790;-65
2023/10/01 14:12:56;;;;;;;8.10;1.80;;;;;;;16.36;61.87;100286.41;109299;1254;58650;-64
2023/10/01 14:15:44;;;;;;;9.90;2.30;;;;;;;16.26;62.76;100290.38;109496;1255;60098;-65